EGKK/LGW METAR and TAF weather

Enter ICAO airport designator
Station Type Date Time Source
EGKK METAR 2022/01/26 20:50 UTC NOAA

EGKK 262050Z 23005KT 9999 BKN029 04/02 Q1031


Station Type Date Time Source
EGKK Decoded METAR 2022/01/26 20:50 UTC NOAA

London / Gatwick Airport, United Kingdom (EGKK) 51-09N 000-11W 0M
Jan 26, 2022 - 03:50 PM EST / 2022.01.26 2050 UTC
Wind: from the SW (230 degrees) at 6 MPH (5 KT):0
Visibility: greater than 7 mile(s):0
Sky conditions: mostly cloudy
Temperature: 39 F (4 C)
Dew Point: 35 F (2 C)
Relative Humidity: 86%
Pressure (altimeter): 30.45 in. Hg (1031 hPa)
ob: EGKK 262050Z 23005KT 9999 BKN029 04/02 Q1031
cycle: 21

Station Type Date Time Source
EGKK TAF 2022/01/26 18:09 UTC NOAA

TAF EGKK 261652Z 2618/2724 24008KT 9999 BKN025 PROB30 2621/2624 8000
BECMG 2705/2708 BKN010
TEMPO 2708/2714 8000 -RA PROB30
TEMPO 2708/2714 4000 -RADZ BKN006
BECMG 2712/2715 FEW030 PROB30 2721/2724 7000

Example: see airport list